createdAt,value
2018-04-17T00:02:01.353Z,10.46
2018-04-17T00:04:30.616Z,10.42
2018-04-17T00:06:59.841Z,10.39
2018-04-17T00:09:29.812Z,10.40
2018-04-17T00:11:59.045Z,10.39
2018-04-17T00:14:28.497Z,10.34
2018-04-17T00:16:59.229Z,10.29
2018-04-17T00:19:28.442Z,10.29
2018-04-17T00:21:57.694Z,10.29
2018-04-17T00:24:26.896Z,10.26
2018-04-17T00:26:56.100Z,10.24
2018-04-17T00:29:25.343Z,10.20
2018-04-17T00:31:56.069Z,10.18
2018-04-17T00:34:25.273Z,10.15
2018-04-17T00:36:55.310Z,10.12
2018-04-17T00:39:25.354Z,10.15
2018-04-17T00:41:54.790Z,10.18
2018-04-17T00:44:23.995Z,10.15
2018-04-17T00:46:53.222Z,10.15
2018-04-17T00:49:22.555Z,10.14
2018-04-17T00:51:51.873Z,10.16
2018-04-17T00:54:21.046Z,10.17
2018-04-17T00:56:50.264Z,10.16
2018-04-17T00:59:19.540Z,10.13
2018-04-17T01:01:48.737Z,10.12
2018-04-17T01:04:18.073Z,10.09
2018-04-17T01:06:47.286Z,10.07
2018-04-17T01:09:16.516Z,10.07
2018-04-17T01:11:45.738Z,10.08
2018-04-17T01:14:14.973Z,10.10
2018-04-17T01:16:44.198Z,10.10
2018-04-17T01:19:14.353Z,10.10
2018-04-17T01:21:43.569Z,10.08
2018-04-17T01:24:12.815Z,10.02
2018-04-17T01:26:42.777Z,9.97
2018-04-17T01:29:12.059Z,9.95
2018-04-17T01:31:41.256Z,9.93
2018-04-17T01:34:10.482Z,9.93
2018-04-17T01:36:39.689Z,9.92
2018-04-17T01:39:10.430Z,9.91
2018-04-17T01:41:39.698Z,9.83
2018-04-17T01:44:08.914Z,9.83
2018-04-17T01:46:39.618Z,9.82
2018-04-17T01:49:08.822Z,9.79
2018-04-17T01:51:38.037Z,9.77
2018-04-17T01:54:07.253Z,9.70
2018-04-17T01:56:36.498Z,9.62
2018-04-17T01:59:05.714Z,9.58
2018-04-17T02:01:34.911Z,9.59
2018-04-17T02:04:04.941Z,9.57
2018-04-17T02:06:35.290Z,9.58
2018-04-17T02:09:05.246Z,9.59
2018-04-17T02:11:34.534Z,9.60
2018-04-17T02:14:04.688Z,9.62
2018-04-17T02:16:33.901Z,9.62
2018-04-17T02:19:03.101Z,9.60
2018-04-17T02:21:32.368Z,9.57
2018-04-17T02:24:01.578Z,9.52
2018-04-17T02:26:30.896Z,9.50
2018-04-17T02:29:00.196Z,9.46
2018-04-17T02:31:29.401Z,9.44
2018-04-17T02:33:58.615Z,9.42
2018-04-17T02:36:28.713Z,9.40
2018-04-17T02:38:57.976Z,9.38
2018-04-17T02:41:27.173Z,9.36
2018-04-17T02:43:56.418Z,9.32
2018-04-17T02:46:25.631Z,9.27
2018-04-17T02:48:55.132Z,9.26
2018-04-17T02:51:25.097Z,9.25
2018-04-17T02:53:54.300Z,9.28
2018-04-17T02:56:23.506Z,9.24
2018-04-17T02:58:52.754Z,9.24
2018-04-17T03:01:22.018Z,9.18
2018-04-17T03:03:51.230Z,9.16
2018-04-17T03:06:21.959Z,9.14
2018-04-17T03:08:52.694Z,9.09
2018-04-17T03:11:21.914Z,9.08
2018-04-17T03:13:51.094Z,9.02
2018-04-17T03:16:21.088Z,8.99
2018-04-17T03:18:50.329Z,9.00
2018-04-17T03:21:19.585Z,9.00
2018-04-17T03:23:49.583Z,8.99
2018-04-17T03:26:18.867Z,8.97
2018-04-17T03:28:48.455Z,8.97
2018-04-17T03:31:17.659Z,8.99
2018-04-17T03:33:47.749Z,8.99
2018-04-17T03:36:17.714Z,8.99
2018-04-17T03:38:46.965Z,9.00
2018-04-17T03:41:17.064Z,9.00
2018-04-17T03:43:46.271Z,9.00
2018-04-17T03:46:17.070Z,9.00
2018-04-17T03:48:46.453Z,8.97
2018-04-17T03:51:15.735Z,8.95
2018-04-17T03:53:45.177Z,8.95
2018-04-17T03:56:14.368Z,8.96
2018-04-17T03:58:43.568Z,8.95
2018-04-17T04:01:12.845Z,8.90
2018-04-17T04:03:42.066Z,8.90
2018-04-17T04:06:11.263Z,8.88
2018-04-17T04:08:40.479Z,8.81
2018-04-17T04:11:09.697Z,8.77
2018-04-17T04:13:39.654Z,8.74
2018-04-17T04:16:26.953Z,8.75
2018-04-17T04:19:13.790Z,8.68
2018-04-17T04:22:00.594Z,8.65
2018-04-17T04:24:47.427Z,8.65
2018-04-17T04:27:16.633Z,8.62
2018-04-17T04:29:45.833Z,8.59
2018-04-17T04:32:15.067Z,8.58
2018-04-17T04:34:44.666Z,8.59
2018-04-17T04:37:14.677Z,8.58
2018-04-17T04:39:44.662Z,8.58
2018-04-17T04:42:13.938Z,8.54
2018-04-17T04:44:43.193Z,8.47
2018-04-17T04:47:13.186Z,8.47
2018-04-17T04:49:42.553Z,8.44
2018-04-17T04:52:11.809Z,8.41
2018-04-17T04:54:40.952Z,8.40
2018-04-17T04:57:10.194Z,8.44
2018-04-17T04:59:39.403Z,8.46
2018-04-17T05:02:09.402Z,8.46
2018-04-17T05:04:38.604Z,8.48
2018-04-17T05:07:08.596Z,8.50
2018-04-17T05:09:37.796Z,8.57
2018-04-17T05:12:07.003Z,8.62
2018-04-17T05:14:36.212Z,8.64
2018-04-17T05:17:06.173Z,8.72
2018-04-17T05:19:35.505Z,8.80
2018-04-17T05:22:04.731Z,8.79
2018-04-17T05:24:33.949Z,8.90
2018-04-17T05:27:03.176Z,9.00
2018-04-17T05:29:32.405Z,9.00
2018-04-17T05:32:01.610Z,9.05
2018-04-17T05:34:30.855Z,9.10
2018-04-17T05:37:00.166Z,9.12
2018-04-17T05:39:29.395Z,9.12
2018-04-17T05:41:58.597Z,9.20
2018-04-17T05:44:27.820Z,9.23
2018-04-17T05:46:57.086Z,9.30
2018-04-17T05:49:26.340Z,9.34
2018-04-17T05:51:55.546Z,9.37
2018-04-17T05:54:24.917Z,9.42
2018-04-17T05:56:54.945Z,9.50
2018-04-17T05:59:24.174Z,9.58
2018-04-17T06:01:53.369Z,9.66
2018-04-17T06:04:22.648Z,9.72
2018-04-17T06:06:52.754Z,9.78
2018-04-17T06:09:22.741Z,9.86
2018-04-17T06:11:51.933Z,9.94
2018-04-17T06:14:21.172Z,10.06
2018-04-17T06:16:50.395Z,10.14
2018-04-17T06:19:19.720Z,10.22
2018-04-17T06:21:49.129Z,10.27
2018-04-17T06:24:18.333Z,10.34
2018-04-17T06:26:47.578Z,10.40
2018-04-17T06:29:16.940Z,10.50
2018-04-17T06:31:46.969Z,10.54
2018-04-17T06:34:17.050Z,10.59
2018-04-17T06:36:46.276Z,10.69
2018-04-17T06:39:16.242Z,10.76
2018-04-17T06:41:45.450Z,10.87
2018-04-17T06:44:14.695Z,10.95
2018-04-17T06:46:43.897Z,11.06
2018-04-17T06:49:13.073Z,11.11
2018-04-17T06:51:42.296Z,11.22
2018-04-17T06:54:11.600Z,11.31
2018-04-17T06:56:41.124Z,11.48
2018-04-17T06:59:10.434Z,11.67
2018-04-17T07:01:39.676Z,11.87
2018-04-17T07:04:09.661Z,11.98
2018-04-17T07:06:38.936Z,12.10
2018-04-17T07:09:08.233Z,12.23
2018-04-17T07:11:37.465Z,12.47
2018-04-17T07:14:06.670Z,12.71
2018-04-17T07:16:37.503Z,12.89
2018-04-17T07:19:06.729Z,13.12
2018-04-17T07:21:36.722Z,13.28
2018-04-17T07:24:05.939Z,13.41
2018-04-17T07:26:35.937Z,13.57
2018-04-17T07:29:05.160Z,13.61
2018-04-17T07:31:35.155Z,13.74
2018-04-17T07:34:04.397Z,13.85
2018-04-17T07:36:33.614Z,14.04
2018-04-17T07:39:02.836Z,14.23
2018-04-17T07:41:32.042Z,14.38
2018-04-17T07:44:02.047Z,14.56
2018-04-17T07:46:31.289Z,14.70
2018-04-17T07:49:08.471Z,14.77
2018-04-17T07:51:37.694Z,14.91
2018-04-17T07:54:06.921Z,15.11
2018-04-17T07:56:36.134Z,15.33
2018-04-17T07:59:05.365Z,15.54
2018-04-17T08:01:34.614Z,15.74
2018-04-17T08:04:03.837Z,15.87
2018-04-17T08:06:33.059Z,16.01
2018-04-17T08:09:02.435Z,16.11
2018-04-17T08:11:31.646Z,16.28
2018-04-17T08:14:01.611Z,16.49
2018-04-17T08:16:30.842Z,16.64
2018-04-17T08:19:00.065Z,16.76
2018-04-17T08:21:29.296Z,16.93
2018-04-17T08:23:58.809Z,17.04
2018-04-17T08:26:28.001Z,17.20
2018-04-17T08:28:57.275Z,17.36
2018-04-17T08:31:27.257Z,17.54
2018-04-17T08:33:56.496Z,17.70
2018-04-17T08:36:26.762Z,17.83
2018-04-17T08:38:55.977Z,17.96
2018-04-17T08:41:25.961Z,18.13
2018-04-17T08:43:55.861Z,18.24
2018-04-17T08:46:25.201Z,18.37
2018-04-17T08:48:54.460Z,18.47
2018-04-17T08:51:24.415Z,18.55
2018-04-17T08:53:53.666Z,18.62
2018-04-17T08:56:23.127Z,18.71
2018-04-17T08:58:52.451Z,18.79
2018-04-17T09:01:21.693Z,18.89
2018-04-17T09:03:50.921Z,19.00
2018-04-17T09:06:20.957Z,19.12
2018-04-17T09:08:50.310Z,19.25
2018-04-17T09:11:19.520Z,19.37
2018-04-17T09:13:48.817Z,19.47
2018-04-17T09:16:18.045Z,19.48
2018-04-17T09:18:48.206Z,19.58
2018-04-17T09:21:17.427Z,19.77
2018-04-17T09:23:46.640Z,19.94
2018-04-17T09:26:15.859Z,20.03
2018-04-17T09:28:45.851Z,20.09
2018-04-17T09:31:15.078Z,20.18
2018-04-17T09:33:45.185Z,20.26
2018-04-17T09:36:15.150Z,20.30
2018-04-17T09:38:44.391Z,20.34
2018-04-17T09:41:13.781Z,20.39
2018-04-17T09:43:43.241Z,20.45
2018-04-17T09:46:12.402Z,20.46
2018-04-17T09:48:42.389Z,20.60
2018-04-17T09:51:11.598Z,20.69
2018-04-17T09:53:41.598Z,20.80
2018-04-17T09:56:10.908Z,20.89
2018-04-17T09:58:40.131Z,20.87
2018-04-17T10:01:14.997Z,20.87
2018-04-17T10:03:44.253Z,20.95
2018-04-17T10:06:14.257Z,21.06
2018-04-17T10:08:43.493Z,21.15
2018-04-17T10:11:12.728Z,21.23
2018-04-17T10:13:41.969Z,21.43
2018-04-17T10:16:11.201Z,21.57
2018-04-17T10:18:40.433Z,21.75
2018-04-17T10:21:09.739Z,21.66
2018-04-17T10:23:38.963Z,21.58
2018-04-17T10:26:08.187Z,21.63
2018-04-17T10:28:37.418Z,21.62
2018-04-17T10:31:06.702Z,21.66
2018-04-17T10:33:35.960Z,21.71
2018-04-17T10:36:05.244Z,21.77
2018-04-17T10:38:34.468Z,21.78
2018-04-17T10:41:03.722Z,21.82
2018-04-17T10:43:32.969Z,21.84
2018-04-17T10:46:02.238Z,21.87
2018-04-17T10:48:31.608Z,21.90
2018-04-17T10:51:00.858Z,21.85
2018-04-17T10:53:31.422Z,21.86
2018-04-17T10:56:00.745Z,21.95
2018-04-17T10:58:29.965Z,22.03
2018-04-17T11:00:59.954Z,22.05
2018-04-17T11:03:29.201Z,21.79
2018-04-17T11:05:58.411Z,21.76
2018-04-17T11:08:27.617Z,21.77
2018-04-17T11:24:01.866Z,20.07
2018-04-17T11:26:31.864Z,20.01
2018-04-17T11:29:01.205Z,20.02
2018-04-17T11:31:30.657Z,20.28
2018-04-17T11:33:59.889Z,20.65
2018-04-17T11:36:29.112Z,20.93
2018-04-17T11:38:58.341Z,21.21
2018-04-17T11:41:27.535Z,21.43
2018-04-17T11:43:56.757Z,21.63
2018-04-17T11:46:26.257Z,21.77
2018-04-17T11:48:55.705Z,21.92
2018-04-17T11:51:25.673Z,21.91
2018-04-17T11:53:54.914Z,21.93
2018-04-17T11:56:24.887Z,21.99
2018-04-17T11:58:54.114Z,21.99
2018-04-17T12:01:23.340Z,21.99
2018-04-17T12:03:52.545Z,21.96
2018-04-17T12:06:21.765Z,22.07
2018-04-17T12:08:51.013Z,22.14
2018-04-17T12:11:21.003Z,22.24
2018-04-17T12:13:51.013Z,22.30
2018-04-17T12:16:21.196Z,22.34
2018-04-17T12:18:50.397Z,22.35
2018-04-17T12:21:19.630Z,22.34
2018-04-17T12:23:48.841Z,22.35
2018-04-17T12:26:18.081Z,22.37
2018-04-17T12:28:47.288Z,22.37
2018-04-17T12:31:16.531Z,22.35
2018-04-17T12:33:45.754Z,22.34
2018-04-17T12:36:15.073Z,22.40
2018-04-17T12:38:44.182Z,22.42
2018-04-17T12:41:13.410Z,22.49
2018-04-17T12:43:42.739Z,22.48
2018-04-17T12:46:11.993Z,22.36
2018-04-17T12:48:41.195Z,22.21
2018-04-17T12:51:10.382Z,22.09
2018-04-17T12:53:39.630Z,22.12
2018-04-17T12:56:09.623Z,21.95
2018-04-17T12:58:38.938Z,21.98
2018-04-17T13:01:08.930Z,22.10
2018-04-17T13:03:38.165Z,22.15
2018-04-17T13:06:07.374Z,22.31
2018-04-17T13:08:36.597Z,22.43
2018-04-17T13:11:05.807Z,22.44
2018-04-17T13:13:35.093Z,22.48
2018-04-17T13:16:04.334Z,22.49
2018-04-17T13:18:33.551Z,22.51
2018-04-17T13:21:03.691Z,22.52
2018-04-17T13:23:34.090Z,22.48
2018-04-17T13:26:04.106Z,22.48
2018-04-17T13:28:33.343Z,22.52
2018-04-17T13:31:02.575Z,22.51
2018-04-17T13:33:31.905Z,22.59
2018-04-17T13:36:01.170Z,22.58
2018-04-17T13:38:30.391Z,22.58
2018-04-17T13:41:00.390Z,22.45
2018-04-17T13:43:29.646Z,22.46
2018-04-17T13:45:59.000Z,22.42
2018-04-17T13:48:28.222Z,22.34
2018-04-17T13:50:58.214Z,22.30
2018-04-17T13:53:28.242Z,22.33
2018-04-17T13:55:57.554Z,22.39
2018-04-17T14:01:02.208Z,22.43
2018-04-17T14:03:31.434Z,22.45
2018-04-17T14:06:00.669Z,22.43
2018-04-17T14:08:30.643Z,22.38
2018-04-17T14:10:59.865Z,22.41
2018-04-17T14:13:29.085Z,22.44
2018-04-17T14:15:59.185Z,22.51
2018-04-17T14:18:28.392Z,22.51
2018-04-17T14:20:57.598Z,22.58
2018-04-17T14:23:27.602Z,22.66
2018-04-17T14:25:57.614Z,22.72
2018-04-17T14:28:26.830Z,22.71
2018-04-17T14:30:56.026Z,22.77
2018-04-17T14:33:26.074Z,22.82
2018-04-17T14:35:55.204Z,22.84
2018-04-17T14:38:24.428Z,22.77
2018-04-17T14:40:53.654Z,22.74
2018-04-17T14:43:23.659Z,22.72
2018-04-17T14:45:53.761Z,22.80
2018-04-17T14:48:22.945Z,22.91
2018-04-17T14:50:52.185Z,22.95
2018-04-17T14:53:21.494Z,23.04
2018-04-17T14:55:50.751Z,23.07
2018-04-17T14:58:19.980Z,23.08
2018-04-17T15:00:49.184Z,23.02
2018-04-17T15:03:18.371Z,22.99
2018-04-17T15:05:48.371Z,22.99
2018-04-17T15:08:17.649Z,22.96
2018-04-17T15:10:46.870Z,23.06
2018-04-17T15:13:16.221Z,22.88
2018-04-17T15:15:45.463Z,22.91
2018-04-17T15:18:15.477Z,22.87
2018-04-17T15:20:44.730Z,22.96
2018-04-17T15:23:14.112Z,23.08
2018-04-17T15:25:43.322Z,23.18
2018-04-17T15:28:12.574Z,23.06
2018-04-17T15:30:41.820Z,23.05
2018-04-17T15:33:11.013Z,23.19
2018-04-17T15:35:40.282Z,23.37
2018-04-17T15:38:10.283Z,23.50
2018-04-17T15:40:40.294Z,23.54
2018-04-17T15:43:09.533Z,23.49
2018-04-17T15:45:38.792Z,23.38
2018-04-17T15:48:08.038Z,23.30
2018-04-17T15:50:38.009Z,23.26
2018-04-17T15:53:07.205Z,23.13
2018-04-17T15:55:37.206Z,23.13
2018-04-17T15:58:06.413Z,23.18
2018-04-17T16:00:35.697Z,23.19
2018-04-17T16:03:04.909Z,23.22
2018-04-17T16:05:34.112Z,23.15
2018-04-17T16:08:04.237Z,23.13
2018-04-17T16:10:34.223Z,23.11
2018-04-17T16:13:03.448Z,23.14
2018-04-17T16:15:32.699Z,23.18
2018-04-17T16:18:01.918Z,23.16
2018-04-17T16:20:32.826Z,23.15
2018-04-17T16:23:02.050Z,23.14
2018-04-17T16:25:31.285Z,23.13
2018-04-17T16:28:01.549Z,23.17
2018-04-17T16:30:30.767Z,23.21
2018-04-17T16:32:59.994Z,23.22
2018-04-17T16:35:29.187Z,23.14
2018-04-17T16:37:58.430Z,23.09
2018-04-17T16:40:27.638Z,23.02
2018-04-17T16:42:56.855Z,22.98
2018-04-17T16:45:26.088Z,22.93
2018-04-17T16:47:56.169Z,22.92
2018-04-17T16:50:25.445Z,22.92
2018-04-17T16:52:54.664Z,22.89
2018-04-17T16:55:23.884Z,22.83
2018-04-17T16:57:53.090Z,22.75
2018-04-17T17:00:22.325Z,22.73
2018-04-17T17:02:51.559Z,22.75
2018-04-17T17:05:20.872Z,22.74
2018-04-17T17:07:50.041Z,22.74
2018-04-17T17:10:19.266Z,22.75
2018-04-17T17:12:48.484Z,22.74
2018-04-17T17:15:18.502Z,22.68
2018-04-17T17:17:48.473Z,22.67
2018-04-17T17:20:17.718Z,22.57
2018-04-17T17:22:46.922Z,22.57
2018-04-17T17:25:16.951Z,22.49
2018-04-17T17:27:46.181Z,22.49
2018-04-17T17:30:15.430Z,22.32
2018-04-17T17:32:45.413Z,22.32
2018-04-17T17:35:14.664Z,22.32
2018-04-17T17:37:43.886Z,22.34
2018-04-17T17:40:13.154Z,22.36
2018-04-17T17:42:43.181Z,22.29
2018-04-17T17:45:13.311Z,22.19
2018-04-17T17:47:43.253Z,22.07
2018-04-17T17:50:12.485Z,21.95
2018-04-17T17:52:42.510Z,21.90
2018-04-17T17:55:11.765Z,21.80
2018-04-17T17:57:41.024Z,21.71
2018-04-17T18:00:10.300Z,21.59
2018-04-17T18:02:40.281Z,21.50
2018-04-17T18:05:09.517Z,21.40
2018-04-17T18:07:39.518Z,21.33
2018-04-17T18:10:08.735Z,21.25
2018-04-17T18:12:38.743Z,21.17
2018-04-17T18:15:08.787Z,21.10
2018-04-17T18:17:38.013Z,21.05
2018-04-17T18:20:07.234Z,20.88
2018-04-17T18:22:36.469Z,20.75
2018-04-17T18:25:05.726Z,20.62
2018-04-17T18:27:34.975Z,20.53
2018-04-17T18:30:04.179Z,20.46
2018-04-17T18:32:33.489Z,20.40
2018-04-17T18:35:02.701Z,20.33
2018-04-17T18:37:31.902Z,20.21
2018-04-17T18:40:01.119Z,20.10
2018-04-17T18:42:31.160Z,19.96
2018-04-17T18:45:01.150Z,19.86
2018-04-17T18:47:30.385Z,19.68
2018-04-17T18:49:59.596Z,19.61
2018-04-17T18:52:28.815Z,19.45
2018-04-17T18:54:58.102Z,19.28
2018-04-17T18:57:27.315Z,19.15
2018-04-17T18:59:56.561Z,19.06
2018-04-17T19:02:26.626Z,19.00
2018-04-17T19:04:55.905Z,18.91
2018-04-17T19:07:25.140Z,18.87
2018-04-17T19:09:54.584Z,18.84
2018-04-17T19:12:23.815Z,18.73
2018-04-17T19:14:53.090Z,18.68
2018-04-17T19:17:23.091Z,18.59
2018-04-17T19:19:53.143Z,18.46
2018-04-17T19:22:23.521Z,18.39
2018-04-17T19:24:52.746Z,18.32
2018-04-17T19:27:21.976Z,18.18
2018-04-17T19:29:51.247Z,17.99
2018-04-17T19:32:20.513Z,17.95
2018-04-17T19:34:50.507Z,17.86
2018-04-17T19:37:19.806Z,17.79
2018-04-17T19:39:49.107Z,17.67
2018-04-17T19:42:18.326Z,17.60
2018-04-17T19:44:47.586Z,17.48
2018-04-17T19:47:16.809Z,17.43
2018-04-17T19:49:46.001Z,17.38
2018-04-17T19:52:15.277Z,17.40
2018-04-17T19:54:44.520Z,17.31
2018-04-17T19:57:13.811Z,17.16
2018-04-17T19:59:43.807Z,17.11
2018-04-17T20:02:13.189Z,17.01
2018-04-17T20:04:43.175Z,16.96
2018-04-17T20:07:12.424Z,16.85
2018-04-17T20:09:41.675Z,16.81
2018-04-17T20:12:11.056Z,16.80
2018-04-17T20:14:41.078Z,16.70
2018-04-17T20:17:10.297Z,16.69
2018-04-17T20:19:39.603Z,16.61
2018-04-17T20:22:08.949Z,16.60
2018-04-17T20:24:38.319Z,16.55
2018-04-17T20:27:07.826Z,16.55
2018-04-17T20:29:37.068Z,16.37
2018-04-17T20:32:07.066Z,16.27
2018-04-17T20:34:36.315Z,16.19
2018-04-17T20:37:05.713Z,16.15
2018-04-17T20:39:34.964Z,16.09
2018-04-17T20:42:04.250Z,16.10
2018-04-17T20:44:33.453Z,16.04
2018-04-17T20:47:02.703Z,16.07
2018-04-17T20:49:32.101Z,16.08
2018-04-17T20:52:01.314Z,16.09
2018-04-17T20:54:30.566Z,16.04
2018-04-17T20:56:59.823Z,16.07
2018-04-17T20:59:29.059Z,16.11
2018-04-17T21:01:58.311Z,16.15
2018-04-17T21:04:27.539Z,16.21
2018-04-17T21:06:56.781Z,16.15
2018-04-17T21:09:26.767Z,16.18
2018-04-17T21:11:56.014Z,16.25
2018-04-17T21:14:26.284Z,16.24
2018-04-17T21:16:55.502Z,16.33
2018-04-17T21:19:24.721Z,16.30
2018-04-17T21:21:53.953Z,16.25
2018-04-17T21:24:23.170Z,16.26
2018-04-17T21:26:52.398Z,16.29
2018-04-17T21:29:22.404Z,16.36
2018-04-17T21:31:51.647Z,16.39
2018-04-17T21:34:20.872Z,16.43
2018-04-17T21:36:50.129Z,16.44
2018-04-17T21:39:19.404Z,16.40
2018-04-17T21:41:49.400Z,16.43
2018-04-17T21:44:19.409Z,16.43
2018-04-17T21:46:48.660Z,16.41
2018-04-17T21:49:18.132Z,16.39
2018-04-17T21:51:48.161Z,16.39
2018-04-17T21:54:18.214Z,16.36
2018-04-17T21:56:47.502Z,16.35
2018-04-17T21:59:16.742Z,16.34
2018-04-17T22:01:46.153Z,16.29
2018-04-17T22:04:15.418Z,16.25
2018-04-17T22:06:44.649Z,16.23
2018-04-17T22:09:13.906Z,16.23
2018-04-17T22:11:43.098Z,16.21
2018-04-17T22:14:12.360Z,16.17
2018-04-17T22:16:41.578Z,16.08
2018-04-17T22:19:10.819Z,15.99
2018-04-17T22:21:40.039Z,15.93
2018-04-17T22:24:09.319Z,15.88
2018-04-17T22:26:38.533Z,15.85
2018-04-17T22:29:07.777Z,15.82
2018-04-17T22:31:37.732Z,15.80
2018-04-17T22:34:06.988Z,15.81
2018-04-17T22:36:36.250Z,15.79
2018-04-17T22:39:06.998Z,15.79
2018-04-17T22:41:36.349Z,15.72
2018-04-17T22:44:05.576Z,15.70
2018-04-17T22:46:34.973Z,15.67
2018-04-17T22:49:05.718Z,15.65
2018-04-17T22:51:38.542Z,15.59
2018-04-17T22:54:07.786Z,15.48
2018-04-17T22:56:37.018Z,15.44
2018-04-17T22:59:06.197Z,15.41
2018-04-17T23:01:35.431Z,15.39
2018-04-17T23:04:04.665Z,15.34
2018-04-17T23:06:33.893Z,15.29
2018-04-17T23:09:03.089Z,15.28
2018-04-17T23:11:33.091Z,15.22
2018-04-17T23:14:02.317Z,15.23
2018-04-17T23:16:31.637Z,15.21
2018-04-17T23:19:00.857Z,15.15
2018-04-17T23:21:30.106Z,15.15
2018-04-17T23:24:00.325Z,15.15
2018-04-17T23:26:30.317Z,15.08
2018-04-17T23:28:59.528Z,15.05
2018-04-17T23:31:28.753Z,15.02
2018-04-17T23:33:58.094Z,15.02
2018-04-17T23:36:27.499Z,14.99
2018-04-17T23:38:56.729Z,14.89
2018-04-17T23:41:25.961Z,14.84
2018-04-17T23:43:55.183Z,14.80
2018-04-17T23:46:24.421Z,14.69
2018-04-17T23:48:53.722Z,14.64
2018-04-17T23:51:23.725Z,14.58
2018-04-17T23:53:52.942Z,14.55
2018-04-17T23:56:22.935Z,14.49
2018-04-17T23:58:52.145Z,14.49
